MP3/FLAC

‹ prev 2022-09-08 next › 582 release(s) · 66,46 GB · filter: day
Release Group Size Files Date ↓
Daniele_Principato-Spiritoindiano-(FREQRC2)-WEB-2022-AFO AFO 92,01 MB 16 2022-09-08
The_Midnight-Heroes-16BIT-WEBFLAC-2022-GARLICKNOTS GARLICKNOTS 340,99 MB 17 2022-09-08
The_Midnight-Heroes-WEB-2022-PIZZA PIZZA 136,34 MB 17 2022-09-08
Vedat_Mutlu-Kids_with_Guns-(TRNDMSK176)-WEB-2022-AFO AFO 126,70 MB 12 2022-09-08
VA-DJ_Selection_101_(Calor_Latino_Vol_.3)-(DSM_643)-2006-B2A_iNT B2A_iNT 98,46 MB 16 2022-09-08
VA-Lohit_Miami_2022-(LR202279)-WEB-2022-AFO AFO 233,93 MB 19 2022-09-08
Paul_Prokop-Road_To_Nowhere-(SUBMISSION332)-WEB-2022-AFO_INT AFO_INT 84,70 MB 12 2022-09-08
Natema-Sambador-(TRANSA410)-SINGLE-WEB-2022-AFO AFO 15,63 MB 5 2022-09-08
Arkademode--Work_Out_EP-(MRI013)-WEB-2022-BABAS BABAS 66,86 MB 9 2022-09-08
Ian_Kita_and_Nkyp-Pineapple_Express__Kabuta-(LCKR092)-WEB-2022-AFO AFO 29,88 MB 6 2022-09-08
Schmidt_(BR)-Substract_Formula-(EXE045)-SINGLE-WEB-2022-AFO AFO 12,34 MB 5 2022-09-08
Felipe_G-Leonov-(PCL1287)-WEB-2022-PTC PTC 27,35 MB 5 2022-09-08
NORLYZ-Eltanin-(3000GRADSPECIAL024)-WEB-2022-AFO_INT AFO_INT 56,78 MB 8 2022-09-08
Madd_Hatter-Transitions-(RUS158)-WEB-2022-PTC PTC 120,74 MB 11 2022-09-08
Undo-Aliens_Go_Home-(DRD081D)-WEB-2022-AFO AFO 35,51 MB 7 2022-09-08
MUUI-Pressure_Points-(HERENOW64)-WEB-2022-AFO AFO 53,44 MB 7 2022-09-08
Tasadi_and_Sarah_De_Warren-I_Would_Do_Anything-(MM14430)-WEB-2022-AFO AFO 21,73 MB 6 2022-09-08
KEENE_and_Manuel_Sahagun_and_Los_Cabra-Berlin_Gets_Physical_EP1-(GPM683)-WEB-2022-AFO AFO 32,98 MB 6 2022-09-08
Gabe_Gurnsey-Diablo-(PHLP16D)-WEB-2022-PTC PTC 121,25 MB 13 2022-09-08
markyno_and_Montanelli_Leonardo_and_Fabrizio_Marra-Solar_Kalimba_EP-(NATBLACK385)-WEB-2022-AFO AFO 87,97 MB 9 2022-09-08
Fernandez_and_SIlvera-Path_of_No_Return-(PF092)-WEB-2022-AFO AFO 47,60 MB 8 2022-09-08
Fossil_Archive-Valves_Of_Life-(KP132)-WEB-2022-PTC PTC 26,29 MB 5 2022-09-08
Deniro-Saola_EP-(TOKEN110D)-WEB-2022-PTC PTC 44,48 MB 7 2022-09-08
Rene_Ablaze_and_Daniel_Cesana-Saviour-(FS057)-WEB-2022-AFO AFO 20,87 MB 5 2022-09-08
Arthesia_vs_DalNulla-Orbital-(ASR413)-WEB-2022-AFO AFO 47,38 MB 8 2022-09-08
Ferry_Tayle_with_XiJaro_and_Pitch-Lost_In_Memories_(David_Elston_Remix)-(FSOEF081)-WEB-2022-AFO AFO 27,37 MB 6 2022-09-08
VA-Fall_2022-(3AV063LP)-WEB-2022-AFO AFO 495,99 MB 34 2022-09-08
Daniele_Zennaro-Dirty-(S006)-WEB-2022-PTC PTC 34,47 MB 5 2022-09-08
Axel_Karakasis-Noise_Speak-(JET172)-WEB-2022-PTC PTC 54,99 MB 7 2022-09-08
Quenum-Harmonic-(NM130)-WEB-2022-PTC PTC 66,64 MB 7 2022-09-08
VA-Archives001-(MNL247)-WEB-2022-AFO AFO 331,22 MB 24 2022-09-08
Simina_Grigoriu-Auryn-(OFF270)-SINGLE-WEB-2022-PTC PTC 13,41 MB 4 2022-09-08
KONI-Romanian_Resurrection_(Incl._Hot_Oasis_Remix)-(TRNDMSK248)-WEB-2022-AFO AFO 29,93 MB 6 2022-09-08
Jiminy_Hop-Levera__Agmoli-(MW035)-WEB-2022-AFO AFO 40,24 MB 5 2022-09-08
Anton_van_Sprundel_and_Six_Senses-Emerge-(ABL111)-WEB-2022-AFO AFO 27,23 MB 6 2022-09-08
VA-Secrets_8-(BLZ107)-WEB-2022-AFO AFO 204,05 MB 15 2022-09-08
Sieber_and_Stavnstrup_ft_Josie_Sandfeld-Heatwave_(Let_Go)-(WATR160)-WEB-2022-AFO AFO 34,76 MB 7 2022-09-08
SkyLost-Lost_Light-(RDXM222)-WEB-2022-AFO AFO 24,09 MB 6 2022-09-08
Mario_Franca-Freedom_of_Choice-(KFR16)-WEB-2022-PTC PTC 53,76 MB 7 2022-09-08
Jeff_Ozmits_x_Jenni_Rudolph-Keep_Running_(Tomas_Heredia__EDHI_EDWARD_Mixes)-(FSOEA003)-WEB-2022-AFO AFO 45,55 MB 8 2022-09-08
KaKi-Cumulonimbus-(SDR556)-SINGLE-WEB-2022-AFO AFO 14,44 MB 5 2022-09-08
D72_and_Alexandra_Badoi-Light_Up_the_World-(BH12610)-WEB-2022-AFO AFO 22,22 MB 6 2022-09-08
Clay_C-Eternity_(Atmospherika_and_Axlsson_Remixes)-(LSR044)-WEB-2022-AFO AFO 26,53 MB 6 2022-09-08
Steve_Dekay_and_Sean_Truby-Thunderfunk-(HVR062)-WEB-2022-AFO AFO 24,13 MB 6 2022-09-08
Mercurial_Virus-Ninmah-(ZT033)-WEB-2022-AFO AFO 25,13 MB 6 2022-09-08
VA-LNOE_TEN_Vol_III-(1235831)-WEB-2022-AFO AFO 85,41 MB 10 2022-09-08
KINETICA_and_Paul_Skelton-One_More_Day-(NK158)-WEB-2022-AFO AFO 26,33 MB 6 2022-09-08
Elias_Costa-Reload-(GERT0704)-SINGLE-WEB-2022-AFO AFO 16,98 MB 5 2022-09-08
U-Mount-Turtle_Paradise-(SUBMISSION333)-WEB-2022-AFO_INT AFO_INT 27,93 MB 6 2022-09-08
Starpicker_ft_Giuseppe_Ottaviani-Purified_(Giuseppe_Ottaviani_Retouch)-(GOM076)-WEB-2022-AFO AFO 21,87 MB 6 2022-09-08